Time;durP1;ratioP1;P1;durP2;ratioP2;P2;SDS_P1;SDS_P2;PMS_P1;PMS_P2;Temp;Humidity;BMP_temperature;BMP_pressure;BME280_temperature;BME280_humidity;BME280_pressure;Samples;Min_cycle;Max_cycle;Signal;HPM_P1;HPM_P2
2021/08/05 00:00:18;;;;;;;;;;;23.30;72.90;;;;;;5200803;28;19929;-84
2021/08/05 00:02:50;;;;;;;;;;;23.30;72.90;;;;;;5186998;28;19933;-81
2021/08/05 00:05:22;;;;;;;;;;;23.30;72.90;;;;;;5169281;28;19934;-82
2021/08/05 00:07:54;;;;;;;;;;;23.30;72.90;;;;;;5184085;28;20422;-82
2021/08/05 00:10:27;;;;;;;;;;;23.30;72.90;;;;;;5153023;28;19925;-83
2021/08/05 00:12:59;;;;;;;;;;;23.30;72.90;;;;;;5187951;28;19930;-81
2021/08/05 00:15:32;;;;;;;;;;;23.30;72.90;;;;;;5188509;28;20395;-82
2021/08/05 00:18:04;;;;;;;;;;;23.30;72.80;;;;;;5183273;28;19930;-84
2021/08/05 00:20:37;;;;;;;;;;;23.30;72.90;;;;;;5185167;28;19934;-82
2021/08/05 00:23:11;;;;;;;;;;;23.30;72.80;;;;;;5186410;28;19936;-81
2021/08/05 00:25:43;;;;;;;;;;;23.30;72.90;;;;;;5187392;28;20314;-81
2021/08/05 00:28:15;;;;;;;;;;;23.30;72.80;;;;;;5189248;28;19926;-80
2021/08/05 00:30:48;;;;;;;;;;;23.30;72.90;;;;;;5189998;28;19936;-82
2021/08/05 00:33:21;;;;;;;;;;;23.30;72.80;;;;;;5187624;28;19932;-84
2021/08/05 00:35:54;;;;;;;;;;;23.30;72.80;;;;;;5184422;28;20379;-83
2021/08/05 00:38:26;;;;;;;;;;;23.30;72.80;;;;;;5192278;28;19929;-82
2021/08/05 00:40:59;;;;;;;;;;;23.30;72.80;;;;;;5206498;28;19933;-81
2021/08/05 00:43:34;;;;;;;;;;;23.30;72.80;;;;;;5204488;28;19983;-84
2021/08/05 00:46:06;;;;;;;;;;;23.30;72.80;;;;;;5155960;28;19921;-81
2021/08/05 00:48:38;;;;;;;;;;;23.30;72.90;;;;;;5175715;28;19940;-84
2021/08/05 00:51:11;;;;;;;;;;;23.30;72.80;;;;;;5199157;28;19926;-82
2021/08/05 00:53:44;;;;;;;;;;;23.30;72.90;;;;;;5201982;28;19925;-83
2021/08/05 00:56:17;;;;;;;;;;;23.30;72.90;;;;;;5206045;28;19940;-83
2021/08/05 00:58:49;;;;;;;;;;;23.30;72.80;;;;;;5205023;28;19930;-85
2021/08/05 01:01:24;;;;;;;;;;;23.30;72.80;;;;;;5187459;28;19952;-84
2021/08/05 01:03:57;;;;;;;;;;;23.30;72.80;;;;;;5206449;28;19936;-84
2021/08/05 01:06:48;;;;;;;;;;;23.30;72.80;;;;;;5165146;28;19927;-82
2021/08/05 01:09:39;;;;;;;;;;;23.30;72.80;;;;;;5183173;28;19929;-83
2021/08/05 01:12:22;;;;;;;;;;;23.30;72.80;;;;;;5193271;28;19930;-84
2021/08/05 01:15:21;;;;;;;;;;;23.30;72.80;;;;;;5187767;28;19929;-79
2021/08/05 01:17:58;;;;;;;;;;;23.30;72.80;;;;;;5186123;28;19929;-82
2021/08/05 01:20:31;;;;;;;;;;;23.30;72.80;;;;;;5173845;28;20089;-84
2021/08/05 01:23:18;;;;;;;;;;;23.30;72.80;;;;;;5203707;28;20294;-84
2021/08/05 01:26:16;;;;;;;;;;;23.30;72.80;;;;;;5180870;28;20380;-86
2021/08/05 01:28:49;;;;;;;;;;;23.30;72.80;;;;;;5187966;28;19940;-87
2021/08/05 01:31:22;;;;;;;;;;;23.30;72.80;;;;;;5190874;28;19936;-81
2021/08/05 01:33:55;;;;;;;;;;;23.30;72.80;;;;;;5183456;28;19930;-82
2021/08/05 01:36:28;;;;;;;;;;;23.30;72.80;;;;;;5139842;28;20386;-86
2021/08/05 01:39:01;;;;;;;;;;;23.30;72.80;;;;;;5206070;28;19936;-81
2021/08/05 01:41:34;;;;;;;;;;;23.30;72.80;;;;;;5188323;28;19929;-81
2021/08/05 01:44:07;;;;;;;;;;;23.30;72.80;;;;;;5173044;28;19941;-85
2021/08/05 01:46:40;;;;;;;;;;;23.20;72.70;;;;;;5203771;28;19936;-86
2021/08/05 01:49:13;;;;;;;;;;;23.30;72.80;;;;;;5172407;28;20351;-85
2021/08/05 01:51:47;;;;;;;;;;;23.30;72.80;;;;;;5185192;28;20339;-85
2021/08/05 01:54:19;;;;;;;;;;;23.30;72.80;;;;;;5173640;28;19934;-87
2021/08/05 01:56:51;;;;;;;;;;;23.30;72.70;;;;;;5156410;28;19926;-85
2021/08/05 01:59:24;;;;;;;;;;;23.30;72.80;;;;;;5171383;28;19929;-84
2021/08/05 02:01:56;;;;;;;;;;;23.30;72.70;;;;;;5188304;28;19936;-87
2021/08/05 02:04:41;;;;;;;;;;;23.20;72.70;;;;;;5173699;28;19929;-82
2021/08/05 02:07:16;;;;;;;;;;;23.30;72.80;;;;;;5174098;28;19929;-83
2021/08/05 02:09:53;;;;;;;;;;;23.20;72.70;;;;;;5187884;28;19933;-85
2021/08/05 02:12:27;;;;;;;;;;;23.20;72.70;;;;;;5189148;28;19929;-86
2021/08/05 02:15:01;;;;;;;;;;;23.20;72.70;;;;;;5174803;28;19930;-83
2021/08/05 02:17:36;;;;;;;;;;;23.20;72.70;;;;;;5175859;28;19925;-86
2021/08/05 02:20:11;;;;;;;;;;;23.20;72.70;;;;;;5189359;28;19936;-84
2021/08/05 02:22:44;;;;;;;;;;;23.20;72.70;;;;;;5174220;28;20418;-83
2021/08/05 02:25:17;;;;;;;;;;;23.20;72.70;;;;;;5186370;28;19932;-85
2021/08/05 02:27:52;;;;;;;;;;;23.20;72.70;;;;;;5190086;28;19925;-83
2021/08/05 02:30:25;;;;;;;;;;;23.20;72.70;;;;;;5188871;28;19936;-84
2021/08/05 02:32:58;;;;;;;;;;;23.20;72.70;;;;;;5189543;28;19944;-82
2021/08/05 02:35:32;;;;;;;;;;;23.20;72.70;;;;;;5189810;28;20379;-83
2021/08/05 02:38:05;;;;;;;;;;;23.20;72.70;;;;;;5202224;28;19926;-86
2021/08/05 02:40:37;;;;;;;;;;;23.20;72.70;;;;;;5186620;28;19932;-83
2021/08/05 02:43:10;;;;;;;;;;;23.20;72.70;;;;;;5168990;28;19929;-83
2021/08/05 02:45:43;;;;;;;;;;;23.20;73.30;;;;;;5186546;28;19925;-81
2021/08/05 02:48:16;;;;;;;;;;;23.20;72.70;;;;;;5183001;28;19940;-85
2021/08/05 02:50:49;;;;;;;;;;;23.20;72.70;;;;;;5188230;28;19929;-83
2021/08/05 02:53:23;;;;;;;;;;;23.20;72.70;;;;;;5171929;28;19930;-85
2021/08/05 02:55:56;;;;;;;;;;;23.20;72.70;;;;;;5186450;28;19928;-83
2021/08/05 02:58:29;;;;;;;;;;;23.20;72.70;;;;;;5185759;28;19925;-85
2021/08/05 03:01:01;;;;;;;;;;;23.20;72.70;;;;;;5170940;28;19925;-84
2021/08/05 03:03:34;;;;;;;;;;;23.20;72.70;;;;;;5204348;28;20417;-83
2021/08/05 03:06:06;;;;;;;;;;;23.20;72.70;;;;;;5185837;28;19929;-83
2021/08/05 03:08:42;;;;;;;;;;;23.20;72.70;;;;;;5197776;28;20323;-85
2021/08/05 03:11:15;;;;;;;;;;;23.20;73.30;;;;;;5184046;28;19933;-83
2021/08/05 03:13:47;;;;;;;;;;;23.20;72.70;;;;;;5188422;28;19929;-85
2021/08/05 03:16:19;;;;;;;;;;;23.20;72.70;;;;;;5187757;28;19936;-83
2021/08/05 03:18:52;;;;;;;;;;;23.20;72.70;;;;;;5189283;28;19936;-81
2021/08/05 03:21:24;;;;;;;;;;;23.20;72.60;;;;;;5180999;28;19933;-84
2021/08/05 03:23:56;;;;;;;;;;;23.20;72.70;;;;;;5184715;28;19926;-86
2021/08/05 03:26:28;;;;;;;;;;;23.20;72.60;;;;;;5185475;28;20410;-83
2021/08/05 03:29:01;;;;;;;;;;;23.20;72.60;;;;;;5170763;28;19944;-84
2021/08/05 03:31:33;;;;;;;;;;;23.20;72.60;;;;;;5182355;28;19929;-83
2021/08/05 03:34:05;;;;;;;;;;;23.20;72.60;;;;;;5198634;28;19952;-82
2021/08/05 03:36:37;;;;;;;;;;;23.20;72.60;;;;;;5199227;28;19940;-82
2021/08/05 03:39:10;;;;;;;;;;;23.20;73.30;;;;;;5185219;28;20227;-83
2021/08/05 03:41:42;;;;;;;;;;;23.20;72.60;;;;;;5187958;28;19925;-85
2021/08/05 03:44:15;;;;;;;;;;;23.20;72.60;;;;;;5187416;28;20387;-84
2021/08/05 03:46:47;;;;;;;;;;;23.20;72.60;;;;;;5182192;28;19937;-86
2021/08/05 03:49:19;;;;;;;;;;;23.20;72.70;;;;;;5190026;28;19925;-85
2021/08/05 03:51:51;;;;;;;;;;;23.20;72.60;;;;;;5187482;28;19925;-84
2021/08/05 03:54:23;;;;;;;;;;;23.20;72.70;;;;;;5189284;28;19932;-83
2021/08/05 03:56:56;;;;;;;;;;;23.20;72.60;;;;;;5155048;28;19933;-83
2021/08/05 03:59:28;;;;;;;;;;;23.20;72.60;;;;;;5184938;28;19931;-83
2021/08/05 04:02:02;;;;;;;;;;;23.20;72.60;;;;;;5186423;28;19936;-84
2021/08/05 04:04:35;;;;;;;;;;;23.20;72.60;;;;;;5188736;28;19937;-83
2021/08/05 04:07:07;;;;;;;;;;;23.20;72.60;;;;;;5189065;28;20409;-85
2021/08/05 04:09:39;;;;;;;;;;;23.20;72.60;;;;;;5191779;28;20283;-86
2021/08/05 04:12:12;;;;;;;;;;;23.20;72.60;;;;;;5172818;28;19933;-82
2021/08/05 04:14:45;;;;;;;;;;;23.20;72.60;;;;;;5190676;28;21903;-85
2021/08/05 04:17:17;;;;;;;;;;;23.20;72.60;;;;;;5205210;28;20387;-85
2021/08/05 04:19:49;;;;;;;;;;;23.20;72.60;;;;;;5155473;28;19926;-84
2021/08/05 04:22:21;;;;;;;;;;;23.20;72.60;;;;;;5188508;28;19932;-84
2021/08/05 04:24:53;;;;;;;;;;;23.20;72.60;;;;;;5185818;28;19944;-85
2021/08/05 04:27:27;;;;;;;;;;;23.20;72.60;;;;;;5202058;28;19926;-83
2021/08/05 04:30:03;;;;;;;;;;;23.20;72.60;;;;;;5174778;28;20287;-85
2021/08/05 04:32:37;;;;;;;;;;;23.20;72.60;;;;;;5190447;28;19936;-83
2021/08/05 04:35:10;;;;;;;;;;;23.20;72.60;;;;;;5184883;28;19940;-84
2021/08/05 04:37:48;;;;;;;;;;;23.20;72.60;;;;;;5184890;28;19936;-83
2021/08/05 04:40:21;;;;;;;;;;;23.20;72.60;;;;;;5200777;28;19933;-80
2021/08/05 04:42:54;;;;;;;;;;;23.20;72.70;;;;;;5199807;28;19926;-83
2021/08/05 04:45:26;;;;;;;;;;;23.20;72.70;;;;;;5193195;28;20403;-82
2021/08/05 04:48:03;;;;;;;;;;;23.20;72.70;;;;;;5189852;28;19933;-81
2021/08/05 04:50:36;;;;;;;;;;;23.20;72.70;;;;;;5153057;28;20379;-83
2021/08/05 04:53:10;;;;;;;;;;;23.20;72.70;;;;;;5186875;28;20185;-83
2021/08/05 04:55:42;;;;;;;;;;;23.20;72.70;;;;;;5187643;28;19926;-82
2021/08/05 04:58:14;;;;;;;;;;;23.20;72.70;;;;;;5189842;28;19944;-83
2021/08/05 05:00:47;;;;;;;;;;;23.20;72.70;;;;;;5191483;28;20402;-83
2021/08/05 05:03:19;;;;;;;;;;;23.20;72.70;;;;;;5189917;28;20394;-82
2021/08/05 05:05:52;;;;;;;;;;;23.20;72.70;;;;;;5185131;28;19936;-82
2021/08/05 05:08:24;;;;;;;;;;;23.20;72.70;;;;;;5186978;28;19926;-81
2021/08/05 05:10:58;;;;;;;;;;;23.20;72.70;;;;;;5204422;28;19926;-83
2021/08/05 05:13:31;;;;;;;;;;;23.20;72.70;;;;;;5186413;28;19940;-84
2021/08/05 05:16:04;;;;;;;;;;;23.20;72.70;;;;;;5185861;28;19928;-82
2021/08/05 05:18:36;;;;;;;;;;;23.20;72.70;;;;;;5188144;28;19932;-83
2021/08/05 05:21:08;;;;;;;;;;;23.20;72.70;;;;;;5189438;28;20333;-83
2021/08/05 05:23:40;;;;;;;;;;;23.20;72.70;;;;;;5189239;28;19952;-83
2021/08/05 05:26:12;;;;;;;;;;;23.20;72.70;;;;;;5187686;28;19929;-84
2021/08/05 05:28:45;;;;;;;;;;;23.20;72.70;;;;;;5190485;28;19925;-84
2021/08/05 05:31:18;;;;;;;;;;;23.20;72.70;;;;;;5186013;28;19934;-84
2021/08/05 05:33:50;;;;;;;;;;;23.20;72.70;;;;;;5170818;28;20422;-82
2021/08/05 05:36:23;;;;;;;;;;;23.20;72.70;;;;;;5186805;28;19941;-82
2021/08/05 05:38:55;;;;;;;;;;;23.20;72.70;;;;;;5185150;28;19934;-83
2021/08/05 05:41:27;;;;;;;;;;;23.20;72.70;;;;;;5172241;28;20469;-82
2021/08/05 05:44:00;;;;;;;;;;;23.20;72.70;;;;;;5185535;28;19937;-83
2021/08/05 05:46:32;;;;;;;;;;;23.20;72.70;;;;;;5185193;28;19940;-83
2021/08/05 05:49:04;;;;;;;;;;;23.20;72.70;;;;;;5187747;28;19926;-82
2021/08/05 05:51:37;;;;;;;;;;;23.20;72.70;;;;;;5202275;28;19932;-84
2021/08/05 05:54:09;;;;;;;;;;;23.20;72.70;;;;;;5218230;28;19940;-82
2021/08/05 05:56:41;;;;;;;;;;;23.20;72.70;;;;;;5186159;28;19933;-82
2021/08/05 05:59:13;;;;;;;;;;;23.20;72.80;;;;;;5185083;28;19937;-82
2021/08/05 06:01:46;;;;;;;;;;;23.20;72.70;;;;;;5181884;28;19925;-83
2021/08/05 06:04:18;;;;;;;;;;;23.20;72.70;;;;;;5188087;28;19949;-82
2021/08/05 06:06:51;;;;;;;;;;;23.20;72.80;;;;;;5187255;28;19936;-81
2021/08/05 06:09:23;;;;;;;;;;;23.20;72.80;;;;;;5184286;28;19935;-81
2021/08/05 06:11:55;;;;;;;;;;;23.20;72.80;;;;;;5167313;28;19925;-84
2021/08/05 06:14:27;;;;;;;;;;;23.20;72.80;;;;;;5181365;28;19925;-82
2021/08/05 06:17:01;;;;;;;;;;;23.20;72.80;;;;;;5198409;28;19937;-82
2021/08/05 06:19:33;;;;;;;;;;;23.20;72.80;;;;;;5175896;28;20112;-84
2021/08/05 06:22:06;;;;;;;;;;;23.20;72.80;;;;;;5181142;28;19929;-83
2021/08/05 06:24:38;;;;;;;;;;;23.20;72.80;;;;;;5184889;28;19946;-83
2021/08/05 06:27:10;;;;;;;;;;;23.20;72.80;;;;;;5167976;28;19925;-84
2021/08/05 06:29:42;;;;;;;;;;;23.20;72.80;;;;;;5185772;28;19937;-82
2021/08/05 06:32:15;;;;;;;;;;;23.20;72.80;;;;;;5182511;28;19940;-82
2021/08/05 06:34:47;;;;;;;;;;;23.20;72.80;;;;;;5201600;28;19964;-84
2021/08/05 06:37:19;;;;;;;;;;;23.20;72.80;;;;;;5183732;28;19932;-83
2021/08/05 06:39:53;;;;;;;;;;;23.20;72.80;;;;;;5178565;28;19929;-85
2021/08/05 06:42:25;;;;;;;;;;;23.20;72.80;;;;;;5188271;28;19932;-81
2021/08/05 06:44:58;;;;;;;;;;;23.20;72.80;;;;;;5184032;28;20387;-82
2021/08/05 06:47:31;;;;;;;;;;;23.20;72.80;;;;;;5187996;28;20387;-84
2021/08/05 06:50:05;;;;;;;;;;;23.20;72.90;;;;;;5183121;28;19926;-84
2021/08/05 06:52:38;;;;;;;;;;;23.20;72.90;;;;;;5161129;28;19929;-82
2021/08/05 06:55:10;;;;;;;;;;;23.20;72.90;;;;;;5180913;28;19929;-83
2021/08/05 06:57:43;;;;;;;;;;;23.20;72.80;;;;;;5167273;28;19930;-84
2021/08/05 07:00:16;;;;;;;;;;;23.20;72.90;;;;;;5182349;28;20458;-83
2021/08/05 07:02:48;;;;;;;;;;;23.20;72.80;;;;;;5196224;28;19929;-82
2021/08/05 07:05:20;;;;;;;;;;;23.20;72.80;;;;;;5178035;28;19936;-82
2021/08/05 07:07:55;;;;;;;;;;;23.20;72.70;;;;;;5169106;28;20291;-85
2021/08/05 07:10:27;;;;;;;;;;;23.20;72.70;;;;;;5185531;28;20004;-84
2021/08/05 07:12:59;;;;;;;;;;;23.20;72.60;;;;;;5194895;28;19925;-81
2021/08/05 07:15:32;;;;;;;;;;;23.10;72.60;;;;;;5183931;28;19925;-84
2021/08/05 07:18:04;;;;;;;;;;;23.20;72.60;;;;;;5201597;28;19936;-82
2021/08/05 07:20:37;;;;;;;;;;;23.20;72.50;;;;;;5155226;28;19925;-81
2021/08/05 07:23:09;;;;;;;;;;;23.20;72.50;;;;;;5185266;28;20304;-83
2021/08/05 07:25:41;;;;;;;;;;;23.20;72.50;;;;;;5177221;28;20175;-80
2021/08/05 07:28:13;;;;;;;;;;;23.20;72.50;;;;;;5201339;28;20312;-81
2021/08/05 07:30:46;;;;;;;;;;;23.20;72.50;;;;;;5177495;28;19938;-81
2021/08/05 07:33:18;;;;;;;;;;;23.20;72.50;;;;;;4486657;28;10000385;-80
2021/08/05 07:35:51;;;;;;;;;;;23.20;72.50;;;;;;5178696;28;19933;-81
2021/08/05 07:38:23;;;;;;;;;;;23.20;72.50;;;;;;5183751;28;19933;-82
2021/08/05 07:40:56;;;;;;;;;;;23.20;72.50;;;;;;5181869;28;20319;-81
2021/08/05 07:43:28;;;;;;;;;;;23.20;72.50;;;;;;5163550;28;19929;-83
2021/08/05 07:46:00;;;;;;;;;;;23.20;72.50;;;;;;5181402;28;19929;-84
2021/08/05 07:48:33;;;;;;;;;;;23.20;72.40;;;;;;5181741;28;19937;-80
2021/08/05 07:51:06;;;;;;;;;;;23.20;72.50;;;;;;5199873;28;19936;-83
2021/08/05 07:53:39;;;;;;;;;;;23.20;72.50;;;;;;5183453;28;19929;-83
2021/08/05 07:56:11;;;;;;;;;;;23.20;72.50;;;;;;5193367;28;19934;-82
2021/08/05 07:58:44;;;;;;;;;;;23.20;72.40;;;;;;5183536;28;19929;-83
2021/08/05 08:01:16;;;;;;;;;;;23.20;72.40;;;;;;5182387;28;19936;-82
2021/08/05 08:03:49;;;;;;;;;;;23.20;72.40;;;;;;5179987;28;19929;-84
2021/08/05 08:06:22;;;;;;;;;;;23.20;72.40;;;;;;5183609;28;19936;-82
2021/08/05 08:08:54;;;;;;;;;;;23.20;72.40;;;;;;5181913;28;19941;-80
2021/08/05 08:11:26;;;;;;;;;;;23.20;72.40;;;;;;5175965;28;19929;-79
2021/08/05 08:13:58;;;;;;;;;;;23.20;72.40;;;;;;5177226;28;19926;-84
2021/08/05 08:16:31;;;;;;;;;;;23.20;72.40;;;;;;5176686;28;20011;-81
2021/08/05 08:19:03;;;;;;;;;;;23.20;72.40;;;;;;5182115;28;19934;-80
2021/08/05 08:21:36;;;;;;;;;;;23.20;72.40;;;;;;5197337;28;19929;-84
2021/08/05 08:24:10;;;;;;;;;;;23.20;72.40;;;;;;5176355;28;19929;-82
2021/08/05 08:26:42;;;;;;;;;;;23.20;72.40;;;;;;5178655;28;20275;-81
2021/08/05 08:29:15;;;;;;;;;;;23.20;72.40;;;;;;5179111;28;19936;-82
2021/08/05 08:31:48;;;;;;;;;;;23.20;72.40;;;;;;5195715;28;19928;-82
2021/08/05 08:34:21;;;;;;;;;;;23.20;72.40;;;;;;5196627;28;19929;-84
2021/08/05 08:36:53;;;;;;;;;;;23.20;72.40;;;;;;5180691;28;20443;-83
2021/08/05 08:39:25;;;;;;;;;;;23.20;72.40;;;;;;5174829;28;19940;-80
2021/08/05 08:41:58;;;;;;;;;;;23.20;72.40;;;;;;5183202;28;20311;-82
2021/08/05 08:44:30;;;;;;;;;;;23.20;72.40;;;;;;5182416;28;20346;-83
2021/08/05 08:47:05;;;;;;;;;;;23.20;72.40;;;;;;5184499;28;19937;-85
2021/08/05 08:49:41;;;;;;;;;;;23.20;72.40;;;;;;5184285;28;19956;-83
2021/08/05 08:52:13;;;;;;;;;;;23.20;72.40;;;;;;5183493;28;20532;-80
2021/08/05 08:54:47;;;;;;;;;;;23.20;72.40;;;;;;5183587;28;20395;-81
2021/08/05 08:57:21;;;;;;;;;;;23.20;72.30;;;;;;5182785;28;19940;-82
2021/08/05 08:59:54;;;;;;;;;;;23.20;72.30;;;;;;5195439;28;19925;-83
2021/08/05 09:02:27;;;;;;;;;;;23.20;72.30;;;;;;5183211;28;19940;-82
2021/08/05 09:05:01;;;;;;;;;;;23.20;72.40;;;;;;5184055;28;19928;-83
2021/08/05 09:07:34;;;;;;;;;;;23.20;72.40;;;;;;5183381;28;19933;-84
2021/08/05 09:10:06;;;;;;;;;;;23.20;72.40;;;;;;5186179;28;19936;-82
2021/08/05 09:12:42;;;;;;;;;;;23.20;72.40;;;;;;5171259;28;19932;-83
2021/08/05 09:15:31;;;;;;;;;;;23.20;72.40;;;;;;5189939;28;19930;-84
2021/08/05 09:18:24;;;;;;;;;;;23.20;72.30;;;;;;5179961;28;20295;-82
2021/08/05 09:21:05;;;;;;;;;;;23.20;72.30;;;;;;5170843;28;19933;-85
2021/08/05 09:23:56;;;;;;;;;;;23.20;72.30;;;;;;5181010;28;19929;-82
2021/08/05 09:26:28;;;;;;;;;;;23.20;72.30;;;;;;5181000;28;20407;-82
2021/08/05 09:29:23;;;;;;;;;;;23.30;72.30;;;;;;5201014;28;20426;-86
2021/08/05 09:31:57;;;;;;;;;;;23.30;72.30;;;;;;5182466;28;19925;-81
2021/08/05 09:34:33;;;;;;;;;;;23.30;72.30;;;;;;5167280;28;19933;-83
2021/08/05 09:37:07;;;;;;;;;;;23.30;72.30;;;;;;5158435;28;19937;-83
2021/08/05 09:39:40;;;;;;;;;;;23.30;72.30;;;;;;5188744;28;19929;-83
2021/08/05 09:42:13;;;;;;;;;;;23.30;72.20;;;;;;5193441;28;19932;-83
2021/08/05 09:44:47;;;;;;;;;;;23.30;72.20;;;;;;5186809;28;19930;-82
2021/08/05 09:47:20;;;;;;;;;;;23.30;72.20;;;;;;5186553;28;19934;-85
2021/08/05 09:49:54;;;;;;;;;;;23.30;72.20;;;;;;5186250;28;20350;-86
2021/08/05 09:52:26;;;;;;;;;;;23.30;72.20;;;;;;5182806;28;19933;-84
2021/08/05 09:54:59;;;;;;;;;;;23.30;72.30;;;;;;5187130;28;19925;-84
2021/08/05 09:57:33;;;;;;;;;;;23.30;72.20;;;;;;5180460;28;20389;-84
2021/08/05 10:00:13;;;;;;;;;;;23.30;72.20;;;;;;5187813;28;20401;-81
2021/08/05 10:02:51;;;;;;;;;;;23.30;72.10;;;;;;5182546;28;19925;-86
2021/08/05 10:05:25;;;;;;;;;;;23.30;72.10;;;;;;5186322;28;19929;-85
2021/08/05 10:08:01;;;;;;;;;;;23.30;72.10;;;;;;5185140;28;19929;-81
2021/08/05 10:10:52;;;;;;;;;;;23.30;72.20;;;;;;5180937;28;19929;-82
2021/08/05 10:13:29;;;;;;;;;;;23.30;72.20;;;;;;5174267;28;19944;-84
2021/08/05 10:16:05;;;;;;;;;;;23.30;72.20;;;;;;5184118;28;19929;-85
2021/08/05 10:18:39;;;;;;;;;;;23.30;72.20;;;;;;5180987;28;20383;-81
2021/08/05 10:21:13;;;;;;;;;;;23.30;72.20;;;;;;5180065;28;19930;-83
2021/08/05 10:23:45;;;;;;;;;;;23.30;72.20;;;;;;5183242;28;19940;-87
2021/08/05 10:26:17;;;;;;;;;;;23.30;72.20;;;;;;5182456;28;20092;-80
2021/08/05 10:28:51;;;;;;;;;;;23.30;72.20;;;;;;5185956;28;19929;-85
2021/08/05 10:31:24;;;;;;;;;;;23.30;72.20;;;;;;5172111;28;19925;-83
2021/08/05 10:33:56;;;;;;;;;;;23.30;72.10;;;;;;5170313;28;19925;-82
2021/08/05 10:36:28;;;;;;;;;;;23.30;72.10;;;;;;5184920;28;19933;-85
2021/08/05 10:39:01;;;;;;;;;;;23.30;72.10;;;;;;5175224;28;19932;-85
2021/08/05 10:41:33;;;;;;;;;;;23.30;72.10;;;;;;5187845;28;20383;-83
2021/08/05 10:44:05;;;;;;;;;;;23.30;72.10;;;;;;5189514;28;19926;-83
2021/08/05 10:46:38;;;;;;;;;;;23.30;72.20;;;;;;5187863;28;20314;-83
2021/08/05 10:49:10;;;;;;;;;;;23.30;72.20;;;;;;5175052;28;19933;-83
2021/08/05 10:51:42;;;;;;;;;;;23.30;72.20;;;;;;5184324;28;19949;-83
2021/08/05 10:54:34;;;;;;;;;;;23.30;72.20;;;;;;5172876;28;19926;-81
2021/08/05 10:57:17;;;;;;;;;;;23.30;72.20;;;;;;5155256;28;19929;-81
2021/08/05 10:59:56;;;;;;;;;;;23.30;72.30;;;;;;5189826;28;19929;-85
2021/08/05 11:02:43;;;;;;;;;;;23.30;72.20;;;;;;5170648;28;19929;-82
2021/08/05 11:05:22;;;;;;;;;;;23.30;72.30;;;;;;5185051;28;20307;-84
2021/08/05 11:08:15;;;;;;;;;;;23.30;72.30;;;;;;5177575;28;19933;-81
2021/08/05 11:10:47;;;;;;;;;;;23.30;72.30;;;;;;5185740;28;20306;-84
2021/08/05 11:13:21;;;;;;;;;;;23.30;72.30;;;;;;4145001;28;10000887;-81
2021/08/05 11:15:53;;;;;;;;;;;23.30;72.30;;;;;;5179996;28;19938;-82
2021/08/05 11:18:27;;;;;;;;;;;23.30;72.30;;;;;;5172449;28;19936;-79
2021/08/05 11:21:00;;;;;;;;;;;23.30;72.40;;;;;;5179130;28;19929;-82
2021/08/05 11:23:36;;;;;;;;;;;23.30;72.30;;;;;;5184191;28;20297;-83
2021/08/05 11:26:11;;;;;;;;;;;23.30;72.40;;;;;;4833695;28;9999828;-82
2021/08/05 11:28:45;;;;;;;;;;;23.30;72.30;;;;;;5180524;28;19929;-81
2021/08/05 11:31:23;;;;;;;;;;;23.30;72.30;;;;;;5184150;28;19925;-83
2021/08/05 11:33:56;;;;;;;;;;;23.30;72.30;;;;;;5178017;28;19936;-83
2021/08/05 11:36:33;;;;;;;;;;;23.30;72.30;;;;;;5178752;28;20688;-83
2021/08/05 11:39:09;;;;;;;;;;;23.30;72.30;;;;;;5178761;28;20219;-81
2021/08/05 11:41:43;;;;;;;;;;;23.30;72.30;;;;;;5178105;28;19925;-81
2021/08/05 11:44:34;;;;;;;;;;;23.30;72.30;;;;;;5165492;28;20489;-80
2021/08/05 11:47:10;;;;;;;;;;;23.30;72.30;;;;;;5183240;28;19933;-84
2021/08/05 11:49:44;;;;;;;;;;;23.30;72.20;;;;;;5174940;28;19929;-81
2021/08/05 11:52:18;;;;;;;;;;;23.30;72.30;;;;;;5180617;28;19933;-82
2021/08/05 11:54:51;;;;;;;;;;;23.30;72.20;;;;;;5177984;28;20575;-80
2021/08/05 11:57:24;;;;;;;;;;;23.30;72.20;;;;;;5178144;28;20411;-81
2021/08/05 11:59:57;;;;;;;;;;;23.30;72.20;;;;;;5180853;28;19929;-84
2021/08/05 12:02:30;;;;;;;;;;;23.30;72.10;;;;;;5185215;28;19925;-85
2021/08/05 12:05:03;;;;;;;;;;;23.40;72.10;;;;;;5187040;28;19937;-86
2021/08/05 12:07:36;;;;;;;;;;;23.40;72.10;;;;;;5168334;28;20434;-85
2021/08/05 12:10:10;;;;;;;;;;;23.40;72.00;;;;;;5188184;28;19925;-85
2021/08/05 12:12:49;;;;;;;;;;;23.40;72.00;;;;;;5189659;28;19926;-87
2021/08/05 12:15:34;;;;;;;;;;;23.40;72.00;;;;;;5189056;28;19933;-85
2021/08/05 12:18:15;;;;;;;;;;;23.40;72.00;;;;;;5169075;28;19930;-85
2021/08/05 12:20:47;;;;;;;;;;;23.50;72.00;;;;;;5190734;28;19930;-87
2021/08/05 12:23:27;;;;;;;;;;;23.50;72.00;;;;;;5191183;28;19929;-83
2021/08/05 12:26:12;;;;;;;;;;;23.50;71.90;;;;;;5193249;28;19925;-87
2021/08/05 12:28:47;;;;;;;;;;;23.50;71.90;;;;;;5191378;28;19933;-84
2021/08/05 12:31:23;;;;;;;;;;;23.50;71.90;;;;;;5190955;28;19936;-87
2021/08/05 12:33:55;;;;;;;;;;;23.50;71.90;;;;;;5224055;28;19936;-87
2021/08/05 12:36:28;;;;;;;;;;;23.50;71.80;;;;;;5191417;28;19925;-83
2021/08/05 12:39:07;;;;;;;;;;;23.60;71.90;;;;;;5190481;28;19945;-87
2021/08/05 12:42:00;;;;;;;;;;;23.50;71.80;;;;;;5205619;28;19936;-83
2021/08/05 12:44:34;;;;;;;;;;;23.60;72.50;;;;;;5172703;28;19937;-84
2021/08/05 12:47:08;;;;;;;;;;;23.60;71.80;;;;;;5206342;28;19936;-87
2021/08/05 12:49:42;;;;;;;;;;;23.60;71.80;;;;;;5187846;28;19925;-86
2021/08/05 12:52:16;;;;;;;;;;;23.60;71.80;;;;;;5178864;28;20038;-86
2021/08/05 12:54:56;;;;;;;;;;;23.60;71.80;;;;;;5203999;28;19925;-86
2021/08/05 12:57:34;;;;;;;;;;;23.60;71.70;;;;;;5206641;28;19933;-85
2021/08/05 13:00:26;;;;;;;;;;;23.60;71.80;;;;;;5188874;28;19944;-87
2021/08/05 13:03:02;;;;;;;;;;;23.60;71.70;;;;;;5191313;28;20398;-87
2021/08/05 13:05:35;;;;;;;;;;;23.60;71.80;;;;;;5206934;28;19939;-87
2021/08/05 13:08:07;;;;;;;;;;;23.60;71.80;;;;;;5188670;28;19933;-87
2021/08/05 13:10:43;;;;;;;;;;;23.60;71.70;;;;;;5172024;28;20380;-87
2021/08/05 13:13:35;;;;;;;;;;;23.60;71.70;;;;;;5191726;28;20425;-86
2021/08/05 13:16:18;;;;;;;;;;;23.60;71.70;;;;;;5175477;28;19940;-85
2021/08/05 13:19:01;;;;;;;;;;;23.60;71.70;;;;;;5187051;28;19925;-87
2021/08/05 13:21:34;;;;;;;;;;;23.60;71.70;;;;;;5174695;28;20401;-86
2021/08/05 13:24:14;;;;;;;;;;;23.60;71.70;;;;;;5190008;28;19952;-88
2021/08/05 13:27:10;;;;;;;;;;;23.60;72.40;;;;;;5189232;28;19926;-85
2021/08/05 13:29:44;;;;;;;;;;;23.60;71.80;;;;;;5184211;28;20534;-89
2021/08/05 13:32:18;;;;;;;;;;;23.60;71.70;;;;;;5191365;28;19929;-86
2021/08/05 13:34:56;;;;;;;;;;;23.60;71.70;;;;;;5176304;28;19925;-88
2021/08/05 13:37:30;;;;;;;;;;;23.60;71.70;;;;;;5188098;28;20080;-86
2021/08/05 13:40:05;;;;;;;;;;;23.60;71.70;;;;;;5189715;28;20286;-87
2021/08/05 13:42:38;;;;;;;;;;;23.60;71.60;;;;;;5150752;28;19933;-87
2021/08/05 13:45:11;;;;;;;;;;;23.60;71.60;;;;;;5190308;28;19925;-86
2021/08/05 13:47:43;;;;;;;;;;;23.60;71.60;;;;;;5183375;28;19929;-88
2021/08/05 13:50:18;;;;;;;;;;;23.70;71.60;;;;;;4480406;28;10000809;-87
2021/08/05 13:52:51;;;;;;;;;;;23.70;71.60;;;;;;5181785;28;19929;-85
2021/08/05 13:55:23;;;;;;;;;;;23.70;71.70;;;;;;5188046;28;19933;-88
2021/08/05 13:57:55;;;;;;;;;;;23.60;71.60;;;;;;5184772;28;20303;-86
2021/08/05 14:00:28;;;;;;;;;;;23.70;71.70;;;;;;5178353;28;19936;-87
2021/08/05 14:03:01;;;;;;;;;;;23.70;71.70;;;;;;5202469;28;19930;-87
2021/08/05 14:05:34;;;;;;;;;;;23.70;71.60;;;;;;5184004;28;20709;-88
2021/08/05 14:08:06;;;;;;;;;;;23.70;71.60;;;;;;5162275;28;19944;-87
2021/08/05 14:10:39;;;;;;;;;;;23.70;71.70;;;;;;5180457;28;19930;-88
2021/08/05 14:13:11;;;;;;;;;;;23.70;71.70;;;;;;5182594;28;19936;-87
2021/08/05 14:15:44;;;;;;;;;;;23.70;71.60;;;;;;5181263;28;19936;-86
2021/08/05 14:18:16;;;;;;;;;;;23.70;71.70;;;;;;5163821;28;19936;-87
2021/08/05 14:20:48;;;;;;;;;;;23.70;71.60;;;;;;5199758;28;19936;-87
2021/08/05 14:23:22;;;;;;;;;;;23.70;71.70;;;;;;5174516;28;19932;-87
2021/08/05 14:25:55;;;;;;;;;;;23.70;71.70;;;;;;5182903;28;19921;-87
2021/08/05 14:28:27;;;;;;;;;;;23.70;71.70;;;;;;5181978;28;19925;-87
2021/08/05 14:30:59;;;;;;;;;;;23.70;71.70;;;;;;5170343;28;19952;-85
2021/08/05 14:33:31;;;;;;;;;;;23.70;71.70;;;;;;5194378;28;19932;-88
2021/08/05 14:36:04;;;;;;;;;;;23.70;71.70;;;;;;5180758;28;19932;-87
2021/08/05 14:38:36;;;;;;;;;;;23.70;71.60;;;;;;5183643;28;19948;-88
2021/08/05 14:41:09;;;;;;;;;;;23.70;71.60;;;;;;5189823;28;19929;-86
2021/08/05 14:43:42;;;;;;;;;;;23.70;71.60;;;;;;5186415;28;19929;-85
2021/08/05 14:46:14;;;;;;;;;;;23.70;71.60;;;;;;5201475;28;19933;-88
2021/08/05 14:48:46;;;;;;;;;;;23.70;71.50;;;;;;5151254;28;19936;-91
2021/08/05 14:51:19;;;;;;;;;;;23.70;71.50;;;;;;5170859;28;19929;-84
2021/08/05 14:53:51;;;;;;;;;;;23.70;71.40;;;;;;5203511;28;19929;-85
2021/08/05 14:56:25;;;;;;;;;;;23.70;71.40;;;;;;5173059;28;20272;-89